PWSweather.com
Personal Weather Stations
Station Observations
STPETERS
BroadstairsGB

BroadstairsGB

Lat: 51.37, Lon: 1.423

Elevation: 141

Station Type: WH1081

Latest ConditionsUpdated 11:00:02 AM GMT Thursday, Nov 23, 2017
Currently Today's Max Today's Min Today's Average
Temperature 50.9°F10.5°C 58.3°F14.6°C 50.7°F10.4°C 55.6°F13.1°C
Dew Point 27.5°F-2.5°C 34.1°F1.2°C 27.3°F-2.6°C 31.7°F-0.2°C
Winds 9.7 mph WSW15.6 kmh WSW 31.9 mph S51.3 kmh S - 20.3 mph 32.7 kmh
Wind Gusts 14.5 mph23.3 kmh 50.1 mph80.6 kmh - -
Humidity 40% 40% 40% 40%
Pressure 29.49 in998.6 mb 29.49 in998.6 mb 29.18 in988.1 mb -
Precipitation - 0.07 in1.8 mm - -
Hour Temp Dew Point Humidity Winds Wind Gusts Pressure Precip Precip Rate Daily Precip Total
11:00 AM 50.9°F10.5°C 27.5°F-2.5°C 40% 9.7 mph WSW15.6 kmh WSW 14.5 mph23.3 kmh 29.49 in998.6 mb 0.00 in0.0 mm 0.00 in0.0 mm 0.07 in1.8 mm
10:45 AM 50.7°F10.4°C 27.3°F-2.6°C 40% 9.7 mph WSW15.6 kmh WSW 13.6 mph21.9 kmh 29.49 in998.6 mb 0.00 in0.0 mm 0.00 in0.0 mm 0.07 in1.8 mm
10:30 AM 50.9°F10.5°C 27.5°F-2.5°C 40% 14.6 mph W23.5 kmh W 16.8 mph27.0 kmh 29.48 in998.3 mb 0.01 in0.3 mm 0.00 in0.0 mm 0.07 in1.8 mm
10:15 AM 51.1°F10.6°C 27.6°F-2.4°C 40% 16.2 mph W26.1 kmh W 20.6 mph33.2 kmh 29.47 in998.0 mb 0.01 in0.3 mm 0.00 in0.0 mm 0.07 in1.8 mm
10:00 AM 50.9°F10.5°C 27.5°F-2.5°C 40% 14.4 mph WNW23.2 kmh WNW 19.0 mph30.6 kmh 29.45 in997.3 mb 0.01 in0.3 mm 0.00 in0.0 mm 0.07 in1.8 mm
09:45 AM 52.7°F11.5°C 29.1°F-1.6°C 40% 13.0 mph WNW20.9 kmh WNW 18.3 mph29.5 kmh 29.42 in996.3 mb 0.01 in0.3 mm 0.04 in1.0 mm 0.07 in1.8 mm
09:30 AM 56.3°F13.5°C 32.3°F0.2°C 40% 11.6 mph WNW18.7 kmh WNW 18.3 mph29.5 kmh 29.40 in995.6 mb 0.00 in0.0 mm 0.00 in0.0 mm 0.06 in1.5 mm
09:15 AM 56.7°F13.7°C 32.6°F0.3°C 40% 12.2 mph WSW19.6 kmh WSW 19.0 mph30.6 kmh 29.38 in994.9 mb 0.00 in0.0 mm 0.00 in0.0 mm 0.06 in1.5 mm
09:00 AM 56.1°F13.4°C 32.1°F0.1°C 40% 13.1 mph SW21.1 kmh SW 17.4 mph28.0 kmh 29.36 in994.2 mb 0.00 in0.0 mm 0.00 in0.0 mm 0.06 in1.5 mm
08:45 AM 55.8°F13.2°C 31.8°F-0.1°C 40% 12.4 mph WSW20.0 kmh WSW 16.8 mph27.0 kmh 29.35 in993.9 mb 0.00 in0.0 mm 0.00 in0.0 mm 0.06 in1.5 mm
08:30 AM 55.2°F12.9°C 31.3°F-0.4°C 40% 13.0 mph WSW20.9 kmh WSW 16.8 mph27.0 kmh 29.34 in993.6 mb 0.00 in0.0 mm 0.00 in0.0 mm 0.06 in1.5 mm
08:15 AM 55.0°F12.8°C 31.2°F-0.4°C 40% 12.1 mph SW19.5 kmh SW 16.8 mph27.0 kmh 29.34 in993.6 mb 0.00 in0.0 mm 0.00 in0.0 mm 0.06 in1.5 mm
08:00 AM 55.9°F13.3°C 32.0°F0.0°C 40% 11.5 mph SW18.5 kmh SW 16.8 mph27.0 kmh 29.32 in992.9 mb 0.00 in0.0 mm 0.00 in0.0 mm 0.06 in1.5 mm
07:45 AM 55.0°F12.8°C 31.2°F-0.4°C 40% 13.6 mph W21.9 kmh W 20.6 mph33.2 kmh 29.31 in992.6 mb 0.00 in0.0 mm 0.00 in0.0 mm 0.06 in1.5 mm
07:30 AM 55.0°F12.8°C 31.2°F-0.4°C 40% 12.4 mph WSW20.0 kmh WSW 17.4 mph28.0 kmh 29.29 in991.9 mb 0.00 in0.0 mm 0.00 in0.0 mm 0.06 in1.5 mm
07:15 AM 55.2°F12.9°C 31.3°F-0.4°C 40% 16.6 mph W26.7 kmh W 21.3 mph34.3 kmh 29.29 in991.9 mb 0.00 in0.0 mm 0.00 in0.0 mm 0.06 in1.5 mm
07:00 AM 55.0°F12.8°C 31.2°F-0.4°C 40% 16.2 mph W26.1 kmh W 21.3 mph34.3 kmh 29.27 in991.2 mb 0.01 in0.3 mm 0.00 in0.0 mm 0.06 in1.5 mm
06:45 AM 55.0°F12.8°C 31.2°F-0.4°C 40% 13.4 mph W21.6 kmh W 17.4 mph28.0 kmh 29.26 in990.9 mb 0.04 in1.0 mm 0.00 in0.0 mm 0.06 in1.5 mm
06:30 AM 55.2°F12.9°C 31.3°F-0.4°C 40% 12.3 mph WSW19.8 kmh WSW 15.9 mph25.6 kmh 29.23 in989.8 mb 0.04 in1.0 mm 0.00 in0.0 mm 0.06 in1.5 mm
06:15 AM 55.6°F13.1°C 31.7°F-0.2°C 40% 15.4 mph W24.8 kmh W 22.8 mph36.7 kmh 29.22 in989.5 mb 0.05 in1.3 mm 0.00 in0.0 mm 0.06 in1.5 mm
06:00 AM 55.6°F13.1°C 31.7°F-0.2°C 40% 19.1 mph WSW30.7 kmh WSW 28.2 mph45.4 kmh 29.21 in989.2 mb 0.05 in1.3 mm 0.04 in1.0 mm 0.05 in1.3 mm
05:45 AM 55.8°F13.2°C 31.8°F-0.1°C 40% 19.5 mph SW31.4 kmh SW 28.9 mph46.5 kmh 29.21 in989.2 mb 0.02 in0.5 mm 0.00 in0.0 mm 0.02 in0.5 mm
05:30 AM 55.8°F13.2°C 31.8°F-0.1°C 40% 25.4 mph SSW40.9 kmh SSW 29.8 mph48.0 kmh 29.20 in988.8 mb 0.02 in0.5 mm 0.04 in1.0 mm 0.02 in0.5 mm
05:15 AM 56.7°F13.7°C 32.6°F0.3°C 40% 27.3 mph S43.9 kmh S 34.9 mph56.2 kmh 29.19 in988.5 mb 0.01 in0.3 mm 0.04 in1.0 mm 0.01 in0.3 mm
05:00 AM 57.7°F14.3°C 33.6°F0.9°C 40% 22.5 mph SSW36.2 kmh SSW 27.3 mph43.9 kmh 29.19 in988.5 mb 0.00 in0.0 mm 0.00 in0.0 mm 0.00 in0.0 mm
04:45 AM 57.6°F14.2°C 33.4°F0.8°C 40% 29.8 mph S48.0 kmh S 41.8 mph67.3 kmh 29.19 in988.5 mb 0.00 in0.0 mm 0.00 in0.0 mm 0.00 in0.0 mm
04:30 AM 58.3°F14.6°C 34.1°F1.2°C 40% 27.9 mph SSW44.9 kmh SSW 34.9 mph56.2 kmh 29.19 in988.5 mb 0.00 in0.0 mm 0.00 in0.0 mm 0.00 in0.0 mm
04:15 AM 57.9°F14.4°C 33.8°F1.0°C 40% 31.9 mph S51.3 kmh S 50.1 mph80.6 kmh 29.18 in988.1 mb 0.00 in0.0 mm 0.00 in0.0 mm 0.00 in0.0 mm
04:00 AM 57.4°F14.1°C 33.3°F0.7°C 40% 23.8 mph SSW38.3 kmh SSW 31.1 mph50.1 kmh 29.18 in988.1 mb 0.00 in0.0 mm 0.00 in0.0 mm 0.00 in0.0 mm
03:45 AM 56.5°F13.6°C 32.5°F0.3°C 40% 23.4 mph S37.7 kmh S 30.4 mph48.9 kmh 29.19 in988.5 mb 0.00 in0.0 mm 0.00 in0.0 mm 0.00 in0.0 mm
03:30 AM 56.5°F13.6°C 32.5°F0.3°C 40% 26.1 mph SSW42.0 kmh SSW 34.9 mph56.2 kmh 29.19 in988.5 mb 0.00 in0.0 mm 0.00 in0.0 mm 0.00 in0.0 mm
03:15 AM 56.7°F13.7°C 32.6°F0.3°C 40% 28.3 mph S45.5 kmh S 37.4 mph60.2 kmh 29.20 in988.8 mb 0.00 in0.0 mm 0.00 in0.0 mm 0.00 in0.0 mm
03:00 AM 56.3°F13.5°C 32.3°F0.2°C 40% 28.8 mph S46.3 kmh S 38.0 mph61.2 kmh 29.21 in989.2 mb 0.00 in0.0 mm 0.00 in0.0 mm 0.00 in0.0 mm
02:45 AM 56.5°F13.6°C 32.5°F0.3°C 40% 28.5 mph SSW45.9 kmh SSW 34.2 mph55.0 kmh 29.21 in989.2 mb 0.00 in0.0 mm 0.00 in0.0 mm 0.00 in0.0 mm
02:30 AM 56.3°F13.5°C 32.3°F0.2°C 40% 27.7 mph S44.6 kmh S 34.2 mph55.0 kmh 29.22 in989.5 mb 0.00 in0.0 mm 0.00 in0.0 mm 0.00 in0.0 mm
02:15 AM 56.5°F13.6°C 32.5°F0.3°C 40% 28.8 mph S46.3 kmh S 34.2 mph55.0 kmh 29.22 in989.5 mb 0.00 in0.0 mm 0.00 in0.0 mm 0.00 in0.0 mm
02:00 AM 56.5°F13.6°C 32.5°F0.3°C 40% 26.8 mph S43.1 kmh S 32.7 mph52.6 kmh 29.23 in989.8 mb 0.00 in0.0 mm 0.00 in0.0 mm 0.00 in0.0 mm
01:45 AM 56.3°F13.5°C 32.3°F0.2°C 40% 26.5 mph S42.6 kmh S 32.7 mph52.6 kmh 29.24 in990.2 mb 0.00 in0.0 mm 0.00 in0.0 mm 0.00 in0.0 mm
01:30 AM 56.1°F13.4°C 32.1°F0.1°C 40% 27.5 mph S44.3 kmh S 38.7 mph62.3 kmh 29.24 in990.2 mb 0.00 in0.0 mm 0.00 in0.0 mm 0.00 in0.0 mm
01:15 AM 56.5°F13.6°C 32.5°F0.3°C 40% 24.4 mph S39.3 kmh S 32.7 mph52.6 kmh 29.25 in990.5 mb 0.00 in0.0 mm 0.00 in0.0 mm 0.00 in0.0 mm
01:00 AM 56.7°F13.7°C 32.6°F0.3°C 40% 23.7 mph SSW38.1 kmh SSW 32.0 mph51.5 kmh 29.26 in990.9 mb 0.00 in0.0 mm 0.00 in0.0 mm 0.00 in0.0 mm
12:45 AM 56.8°F13.8°C 32.8°F0.4°C 40% 25.8 mph S41.5 kmh S 32.7 mph52.6 kmh 29.27 in991.2 mb 0.00 in0.0 mm 0.00 in0.0 mm 0.00 in0.0 mm
12:30 AM 57.0°F13.9°C 32.9°F0.5°C 40% 26.5 mph S42.6 kmh S 32.7 mph52.6 kmh 29.27 in991.2 mb 0.00 in0.0 mm 0.00 in0.0 mm 0.00 in0.0 mm
12:15 AM 57.2°F14.0°C 33.1°F0.6°C 40% 25.7 mph S41.4 kmh S 37.4 mph60.2 kmh 29.27 in991.2 mb 0.00 in0.0 mm 0.00 in0.0 mm 0.00 in0.0 mm
12:00 AM 57.7°F14.3°C 33.6°F0.9°C 40% 24.9 mph S40.1 kmh S 28.9 mph46.5 kmh 29.28 in991.5 mb 0.00 in0.0 mm 0.00 in0.0 mm 0.00 in0.0 mm